Bunbury, Australia
Current Conditions -  °F | °C
As of 12:30 PM on Monday 26 Jan 2015 (Local Time) from YPJT Reporting Station
Clear Clear  
Wind Chill: 91°   Ceiling: Unl
Heat Index: 91°   Visibility: 6mi
Dew Point: 46°   Wind: 13mph
Humidity: 21%   Direction: 80°E
Pressure: 29.85"   Gusts: NA
Location:  33.33°S, 115.64°E
Report Text: YPJT 260430Z AUTO 08011KT 080V140 9999 // NCD 33/08 Q1011
Loading
Personal Weather Stations






























Interactive Weather Map New forecast layout! Learn more

10-Day Weather Forecast

Advertisements
Track Severe Weather on mobile